Time;durP1;ratioP1;P1;durP2;ratioP2;P2;SDS_P1;SDS_P2;PMS_P1;PMS_P2;Temp;Humidity;BMP_temperature;BMP_pressure;BME280_temperature;BME280_humidity;BME280_pressure;Samples;Min_cycle;Max_cycle;Signal;HPM_P1;HPM_P2
2021/12/26 00:01:18;;;;;;;7.00;3.77;;;;;;;;;;4880573;29;20029;-79
2021/12/26 00:03:45;;;;;;;10.63;4.00;;;;;;;;;;4879040;29;20111;-79
2021/12/26 00:06:14;;;;;;;8.07;4.07;;;;;;;;;;4879268;29;20451;-79
2021/12/26 00:08:40;;;;;;;6.67;3.53;;;;;;;;;;4879173;29;20021;-79
2021/12/26 00:11:06;;;;;;;12.07;4.13;;;;;;;;;;4880325;29;20033;-79
2021/12/26 00:13:31;;;;;;;10.53;3.90;;;;;;;;;;4880661;29;20181;-79
2021/12/26 00:15:57;;;;;;;11.87;4.17;;;;;;;;;;4880600;29;20485;-80
2021/12/26 00:18:22;;;;;;;6.77;3.23;;;;;;;;;;4878981;29;20025;-79
2021/12/26 00:20:48;;;;;;;11.70;4.40;;;;;;;;;;4890013;29;20065;-78
2021/12/26 00:23:14;;;;;;;9.00;3.90;;;;;;;;;;4893467;29;20025;-80
2021/12/26 00:25:39;;;;;;;8.20;3.77;;;;;;;;;;4881899;29;20021;-79
2021/12/26 00:28:05;;;;;;;12.20;4.03;;;;;;;;;;4880547;29;20081;-79
2021/12/26 00:30:30;;;;;;;15.07;4.70;;;;;;;;;;4880156;29;20036;-79
2021/12/26 00:32:55;;;;;;;12.47;5.10;;;;;;;;;;4880014;29;20434;-79
2021/12/26 00:35:21;;;;;;;10.03;4.73;;;;;;;;;;4880052;29;20128;-79
2021/12/26 00:37:47;;;;;;;13.83;5.53;;;;;;;;;;4880069;29;20029;-80
2021/12/26 00:40:14;;;;;;;11.50;4.83;;;;;;;;;;4879830;29;20178;-79
2021/12/26 00:42:39;;;;;;;11.63;4.77;;;;;;;;;;4880337;29;20092;-79
2021/12/26 00:45:05;;;;;;;9.87;4.73;;;;;;;;;;4880080;29;20438;-79
2021/12/26 00:47:32;;;;;;;12.77;4.97;;;;;;;;;;4879919;29;20027;-80
2021/12/26 00:49:57;;;;;;;11.33;5.40;;;;;;;;;;4879568;29;20036;-79
2021/12/26 00:52:23;;;;;;;9.57;4.70;;;;;;;;;;4878626;29;20021;-79
2021/12/26 00:54:48;;;;;;;13.77;5.37;;;;;;;;;;4879984;29;20029;-79
2021/12/26 00:57:13;;;;;;;14.63;5.30;;;;;;;;;;4879786;29;20029;-79
2021/12/26 00:59:38;;;;;;;11.50;4.90;;;;;;;;;;4878156;29;20021;-79
2021/12/26 01:02:04;;;;;;;12.80;5.50;;;;;;;;;;4878221;29;20029;-78
2021/12/26 01:04:29;;;;;;;10.20;5.17;;;;;;;;;;4879646;29;20481;-79
2021/12/26 01:06:55;;;;;;;11.40;5.20;;;;;;;;;;4879413;29;20104;-80
2021/12/26 01:09:25;;;;;;;11.80;5.00;;;;;;;;;;4879193;29;20056;-79
2021/12/26 01:11:54;;;;;;;13.73;5.27;;;;;;;;;;4879381;29;20021;-79
2021/12/26 01:14:26;;;;;;;17.60;5.17;;;;;;;;;;4879216;29;20028;-80
2021/12/26 01:17:01;;;;;;;14.27;5.33;;;;;;;;;;4879175;29;20036;-79
2021/12/26 01:19:32;;;;;;;11.50;5.10;;;;;;;;;;4879462;29;20021;-80
2021/12/26 01:21:58;;;;;;;10.03;4.83;;;;;;;;;;4879615;29;20482;-80
2021/12/26 01:24:23;;;;;;;12.20;5.10;;;;;;;;;;4879361;29;20036;-80
2021/12/26 01:26:48;;;;;;;10.67;4.67;;;;;;;;;;4879131;29;20606;-79
2021/12/26 01:29:14;;;;;;;12.00;5.13;;;;;;;;;;4877606;29;20025;-79
2021/12/26 01:31:39;;;;;;;11.30;4.60;;;;;;;;;;4879058;29;20358;-78
2021/12/26 01:34:05;;;;;;;16.10;5.20;;;;;;;;;;4879435;29;20400;-79
2021/12/26 01:36:31;;;;;;;11.10;4.83;;;;;;;;;;4878650;29;20473;-79
2021/12/26 01:38:58;;;;;;;10.53;4.80;;;;;;;;;;4879137;29;20043;-79
2021/12/26 01:41:25;;;;;;;15.30;5.37;;;;;;;;;;4879396;29;20470;-80
2021/12/26 01:43:56;;;;;;;10.33;4.90;;;;;;;;;;4878927;29;20060;-79
2021/12/26 01:46:22;;;;;;;11.37;4.90;;;;;;;;;;4879673;29;20025;-80
2021/12/26 01:48:47;;;;;;;9.70;4.37;;;;;;;;;;4877873;29;20039;-79
2021/12/26 01:51:12;;;;;;;11.20;4.93;;;;;;;;;;4878744;29;20466;-79
2021/12/26 01:53:39;;;;;;;14.87;5.10;;;;;;;;;;4878715;29;20025;-80
2021/12/26 01:56:06;;;;;;;13.73;5.23;;;;;;;;;;4878834;29;20112;-79
2021/12/26 01:58:32;;;;;;;13.90;5.77;;;;;;;;;;4878964;29;20032;-80
2021/12/26 02:01:02;;;;;;;12.67;4.90;;;;;;;;;;4878433;29;20025;-80
2021/12/26 02:03:27;;;;;;;11.17;5.03;;;;;;;;;;4877666;29;20029;-80
2021/12/26 02:05:53;;;;;;;14.17;5.97;;;;;;;;;;4878815;29;20112;-79
2021/12/26 02:08:18;;;;;;;11.97;5.47;;;;;;;;;;4884931;29;20024;-79
2021/12/26 02:10:43;;;;;;;14.40;5.57;;;;;;;;;;4883928;29;20511;-80
2021/12/26 02:13:09;;;;;;;16.87;6.37;;;;;;;;;;4884107;29;20044;-81
2021/12/26 02:15:34;;;;;;;13.63;5.87;;;;;;;;;;4884589;29;20017;-80
2021/12/26 02:17:59;;;;;;;16.80;7.03;;;;;;;;;;4884523;29;20473;-80
2021/12/26 02:20:30;;;;;;;13.60;6.87;;;;;;;;;;4882271;29;20084;-80
2021/12/26 02:23:02;;;;;;;15.83;5.77;;;;;;;;;;4880773;29;20053;-80
2021/12/26 02:27:30;;;;;;;12.60;5.47;;;;;;;;;;4879384;29;20025;-80
2021/12/26 02:28:13;;;;;;;20.63;6.60;;;;;;;;;;4888972;29;20056;-80
2021/12/26 02:30:39;;;;;;;16.90;5.90;;;;;;;;;;4891003;29;20021;-80
2021/12/26 02:33:07;;;;;;;14.87;7.17;;;;;;;;;;4884470;29;20032;-80
2021/12/26 02:35:32;;;;;;;18.80;6.97;;;;;;;;;;4879614;29;20069;-80
2021/12/26 02:37:58;;;;;;;16.33;7.07;;;;;;;;;;4877900;29;20446;-79
2021/12/26 02:40:23;;;;;;;14.40;5.53;;;;;;;;;;4877554;29;20112;-79
2021/12/26 02:42:48;;;;;;;19.07;7.27;;;;;;;;;;4877807;29;20126;-79
2021/12/26 02:45:14;;;;;;;15.33;6.50;;;;;;;;;;4878664;29;20017;-80
2021/12/26 02:47:41;;;;;;;14.00;6.87;;;;;;;;;;4881052;29;20487;-80
2021/12/26 02:50:08;;;;;;;13.77;6.70;;;;;;;;;;4880726;29;20084;-80
2021/12/26 02:52:33;;;;;;;16.10;6.87;;;;;;;;;;4880842;29;20029;-80
2021/12/26 02:54:59;;;;;;;11.77;5.47;;;;;;;;;;4882233;29;20384;-79
2021/12/26 02:57:25;;;;;;;17.67;6.20;;;;;;;;;;4882230;29;20025;-80
2021/12/26 02:59:50;;;;;;;12.47;6.20;;;;;;;;;;4882366;29;20101;-79
2021/12/26 03:02:15;;;;;;;13.83;6.40;;;;;;;;;;4882724;29;20473;-80
2021/12/26 03:04:40;;;;;;;15.17;6.70;;;;;;;;;;4882265;29;20028;-80
2021/12/26 03:07:05;;;;;;;15.67;7.47;;;;;;;;;;4882924;29;20040;-80
2021/12/26 03:09:34;;;;;;;14.23;6.43;;;;;;;;;;4883333;29;20112;-81
2021/12/26 03:11:59;;;;;;;14.80;7.45;;;;;;;;;;4883697;29;20021;-80
2021/12/26 03:14:25;;;;;;;19.73;7.73;;;;;;;;;;4882960;29;20515;-80
2021/12/26 03:16:51;;;;;;;19.23;6.70;;;;;;;;;;4882108;29;20543;-80
2021/12/26 03:19:16;;;;;;;16.13;6.43;;;;;;;;;;4880958;29;20514;-79
2021/12/26 03:21:42;;;;;;;15.57;6.40;;;;;;;;;;4883476;29;20017;-79
2021/12/26 03:24:07;;;;;;;15.00;6.43;;;;;;;;;;4882827;29;20029;-80
2021/12/26 03:26:33;;;;;;;13.60;5.90;;;;;;;;;;4883678;29;20044;-80
2021/12/26 03:28:58;;;;;;;14.87;7.07;;;;;;;;;;4884986;29;20140;-79
2021/12/26 03:31:23;;;;;;;15.10;6.97;;;;;;;;;;4884988;29;20029;-79
2021/12/26 03:33:48;;;;;;;16.43;7.00;;;;;;;;;;4885332;29;20033;-80
2021/12/26 03:36:13;;;;;;;18.33;7.20;;;;;;;;;;4884125;29;20049;-80
2021/12/26 03:38:39;;;;;;;16.97;7.20;;;;;;;;;;4881269;29;20048;-80
2021/12/26 03:41:04;;;;;;;15.23;6.47;;;;;;;;;;4881044;29;20485;-80
2021/12/26 03:43:29;;;;;;;20.57;7.73;;;;;;;;;;4881045;29;20519;-80
2021/12/26 03:45:55;;;;;;;17.13;7.33;;;;;;;;;;4879556;29;20021;-80
2021/12/26 03:48:21;;;;;;;20.40;7.93;;;;;;;;;;4880948;29;20021;-80
2021/12/26 03:50:47;;;;;;;17.40;6.73;;;;;;;;;;4881261;29;20025;-80
2021/12/26 03:53:12;;;;;;;14.03;6.47;;;;;;;;;;4881163;29;20021;-80
2021/12/26 03:55:38;;;;;;;15.50;6.53;;;;;;;;;;4881207;29;20028;-80
2021/12/26 03:58:03;;;;;;;13.37;6.07;;;;;;;;;;4880441;29;20021;-79
2021/12/26 04:00:29;;;;;;;16.67;6.60;;;;;;;;;;4880972;29;20021;-79
2021/12/26 04:02:55;;;;;;;14.33;6.40;;;;;;;;;;4881145;29;20409;-79
2021/12/26 04:05:20;;;;;;;14.93;5.90;;;;;;;;;;4879988;29;20025;-79
2021/12/26 04:07:45;;;;;;;20.00;6.10;;;;;;;;;;4881448;29;20598;-81
2021/12/26 04:10:12;;;;;;;12.83;5.57;;;;;;;;;;4880954;29;20028;-80
2021/12/26 04:12:38;;;;;;;20.30;6.77;;;;;;;;;;4880856;29;20029;-80
2021/12/26 04:15:07;;;;;;;12.73;6.30;;;;;;;;;;4881319;29;20025;-80
2021/12/26 04:17:33;;;;;;;16.97;6.83;;;;;;;;;;4880763;29;20028;-80
2021/12/26 04:19:58;;;;;;;14.80;6.00;;;;;;;;;;4880837;29;20025;-79
2021/12/26 04:22:23;;;;;;;15.83;6.10;;;;;;;;;;4880826;29;20032;-80
2021/12/26 04:24:48;;;;;;;17.10;6.13;;;;;;;;;;4880957;29;20048;-79
2021/12/26 04:27:13;;;;;;;15.10;5.47;;;;;;;;;;4881737;29;20500;-79
2021/12/26 04:29:39;;;;;;;16.80;5.77;;;;;;;;;;4880844;29;20017;-79
2021/12/26 04:32:04;;;;;;;12.90;6.20;;;;;;;;;;4881340;29;20053;-79
2021/12/26 04:34:29;;;;;;;14.33;6.63;;;;;;;;;;4881191;29;20060;-80
2021/12/26 04:36:55;;;;;;;16.03;5.97;;;;;;;;;;4890424;29;20489;-80
2021/12/26 04:39:20;;;;;;;13.10;5.83;;;;;;;;;;4892673;29;20520;-78
2021/12/26 04:41:46;;;;;;;11.00;5.20;;;;;;;;;;4883389;29;20115;-79
2021/12/26 04:44:12;;;;;;;13.97;5.27;;;;;;;;;;4883334;29;20504;-79
2021/12/26 04:46:37;;;;;;;15.90;6.37;;;;;;;;;;4881078;29;20021;-79
2021/12/26 04:49:03;;;;;;;14.90;5.40;;;;;;;;;;4882422;29;20044;-80
2021/12/26 04:51:28;;;;;;;16.30;6.20;;;;;;;;;;4881429;29;20067;-79
2021/12/26 04:53:53;;;;;;;16.53;5.57;;;;;;;;;;4882036;29;20017;-79
2021/12/26 04:56:18;;;;;;;16.23;5.27;;;;;;;;;;4881309;29;20027;-79
2021/12/26 04:58:44;;;;;;;11.57;5.30;;;;;;;;;;4881515;29;20025;-79
2021/12/26 05:01:09;;;;;;;16.97;6.10;;;;;;;;;;4881440;29;20549;-80
2021/12/26 05:03:34;;;;;;;13.93;5.87;;;;;;;;;;4880083;29;20028;-79
2021/12/26 05:06:02;;;;;;;13.07;6.37;;;;;;;;;;4879565;29;20032;-79
2021/12/26 05:08:28;;;;;;;10.13;3.70;;;;;;;;;;4879970;29;20049;-80
2021/12/26 05:10:53;;;;;;;10.50;5.47;;;;;;;;;;4880638;29;20028;-79
2021/12/26 05:13:18;;;;;;;14.20;5.10;;;;;;;;;;4881858;29;20017;-79
2021/12/26 05:15:43;;;;;;;14.33;5.33;;;;;;;;;;4880842;29;20056;-79
2021/12/26 05:18:09;;;;;;;11.33;5.17;;;;;;;;;;4880693;29;20489;-80
2021/12/26 05:20:34;;;;;;;12.20;5.77;;;;;;;;;;4880984;29;20396;-79
2021/12/26 05:23:00;;;;;;;15.13;5.63;;;;;;;;;;4882731;29;20075;-79
2021/12/26 05:25:26;;;;;;;16.27;5.80;;;;;;;;;;4882729;29;20029;-79
2021/12/26 05:27:52;;;;;;;17.27;5.53;;;;;;;;;;4885196;29;20041;-79
2021/12/26 05:30:18;;;;;;;16.20;5.73;;;;;;;;;;4885720;29;20025;-80
2021/12/26 05:32:44;;;;;;;18.77;7.23;;;;;;;;;;4886019;29;20036;-78
2021/12/26 05:35:09;;;;;;;15.47;6.23;;;;;;;;;;4885588;29;20069;-79
2021/12/26 05:37:35;;;;;;;14.70;6.37;;;;;;;;;;4883900;29;20042;-80
2021/12/26 05:40:02;;;;;;;14.37;6.50;;;;;;;;;;4882337;29;20024;-79
2021/12/26 05:42:28;;;;;;;14.20;6.07;;;;;;;;;;4878451;29;20029;-79
2021/12/26 05:44:54;;;;;;;15.97;6.80;;;;;;;;;;4878777;29;20089;-79
2021/12/26 05:47:19;;;;;;;20.63;6.67;;;;;;;;;;4879394;29;20081;-79
2021/12/26 05:49:44;;;;;;;19.47;7.13;;;;;;;;;;4880309;29;20060;-79
2021/12/26 05:52:09;;;;;;;14.13;6.07;;;;;;;;;;4879335;29;20025;-78
2021/12/26 05:54:35;;;;;;;15.10;6.40;;;;;;;;;;4880784;29;20040;-80
2021/12/26 05:57:00;;;;;;;16.27;7.30;;;;;;;;;;4880251;29;20033;-80
2021/12/26 05:59:26;;;;;;;17.80;7.37;;;;;;;;;;4880095;29;20029;-79
2021/12/26 06:01:51;;;;;;;12.87;6.23;;;;;;;;;;4878990;29;20586;-78
2021/12/26 06:04:16;;;;;;;21.50;6.53;;;;;;;;;;4879057;29;20461;-79
2021/12/26 06:06:43;;;;;;;15.27;6.23;;;;;;;;;;4878122;29;20085;-79
2021/12/26 06:09:09;;;;;;;16.00;7.03;;;;;;;;;;4878127;29;20492;-78
2021/12/26 06:11:34;;;;;;;16.30;5.80;;;;;;;;;;4878234;29;20029;-79
2021/12/26 06:13:59;;;;;;;20.23;6.73;;;;;;;;;;4879212;29;20021;-80
2021/12/26 06:16:24;;;;;;;14.83;6.23;;;;;;;;;;4878807;29;20096;-79
2021/12/26 06:18:50;;;;;;;16.37;6.43;;;;;;;;;;4879598;29;20470;-81
2021/12/26 06:21:15;;;;;;;16.27;6.30;;;;;;;;;;4880313;29;20021;-80
2021/12/26 06:23:40;;;;;;;18.30;6.20;;;;;;;;;;4882338;29;20037;-80
2021/12/26 06:26:05;;;;;;;14.37;6.50;;;;;;;;;;4884623;29;20048;-80
2021/12/26 06:28:30;;;;;;;14.83;6.20;;;;;;;;;;4884510;29;20028;-79
2021/12/26 06:30:56;;;;;;;16.07;5.57;;;;;;;;;;4885245;29;20017;-81
2021/12/26 06:33:21;;;;;;;16.03;7.27;;;;;;;;;;4885949;29;20044;-79
2021/12/26 06:35:46;;;;;;;13.17;6.30;;;;;;;;;;4886501;29;20477;-79
2021/12/26 06:38:11;;;;;;;15.70;6.03;;;;;;;;;;4885209;29;20044;-79
2021/12/26 06:40:37;;;;;;;13.57;6.37;;;;;;;;;;4891543;29;20024;-80
2021/12/26 06:43:02;;;;;;;17.23;6.33;;;;;;;;;;4891331;29;20056;-80
2021/12/26 06:45:27;;;;;;;19.60;5.80;;;;;;;;;;4891789;29;20049;-78
2021/12/26 06:47:55;;;;;;;18.43;6.57;;;;;;;;;;4886337;29;20037;-79
2021/12/26 06:50:21;;;;;;;13.23;5.72;;;;;;;;;;4883049;29;20052;-79
2021/12/26 06:52:46;;;;;;;15.27;5.70;;;;;;;;;;4885452;29;20025;-79
2021/12/26 06:55:12;;;;;;;17.03;6.30;;;;;;;;;;4888393;29;20025;-79
2021/12/26 06:57:38;;;;;;;15.30;6.53;;;;;;;;;;4884053;29;20041;-80
2021/12/26 07:00:08;;;;;;;13.97;5.67;;;;;;;;;;4883838;29;20025;-80
2021/12/26 07:02:33;;;;;;;16.73;6.60;;;;;;;;;;4884652;29;20561;-79
2021/12/26 07:04:58;;;;;;;15.47;6.23;;;;;;;;;;4884800;29;20017;-80
2021/12/26 07:07:23;;;;;;;15.77;6.23;;;;;;;;;;4884537;29;20056;-79
2021/12/26 07:09:49;;;;;;;17.87;6.30;;;;;;;;;;4885075;29;20025;-80
2021/12/26 07:12:14;;;;;;;12.53;5.67;;;;;;;;;;4884995;29;20025;-79
2021/12/26 07:14:40;;;;;;;14.73;5.73;;;;;;;;;;4883614;29;20029;-78
2021/12/26 07:17:06;;;;;;;11.30;5.07;;;;;;;;;;4883935;29;20020;-80
2021/12/26 07:19:31;;;;;;;16.63;5.50;;;;;;;;;;4882563;29;20504;-78
2021/12/26 07:21:56;;;;;;;14.97;6.47;;;;;;;;;;4884322;29;20032;-79
2021/12/26 07:24:21;;;;;;;12.70;5.10;;;;;;;;;;4884105;29;20089;-79
2021/12/26 07:26:47;;;;;;;14.53;6.13;;;;;;;;;;4884090;29;20025;-79
2021/12/26 07:29:12;;;;;;;13.40;5.63;;;;;;;;;;4886323;29;20025;-80
2021/12/26 07:31:40;;;;;;;14.93;5.57;;;;;;;;;;4887182;29;20109;-79
2021/12/26 07:34:05;;;;;;;14.50;5.60;;;;;;;;;;4884547;29;20080;-79
2021/12/26 07:36:31;;;;;;;16.60;5.93;;;;;;;;;;4885316;29;20108;-79
2021/12/26 07:38:56;;;;;;;13.10;5.40;;;;;;;;;;4885976;29;20192;-80
2021/12/26 07:41:21;;;;;;;14.13;5.00;;;;;;;;;;4887086;29;20046;-79
2021/12/26 07:43:46;;;;;;;13.00;6.30;;;;;;;;;;4887210;29;20107;-79
2021/12/26 07:46:12;;;;;;;14.00;5.87;;;;;;;;;;4886085;29;20040;-79
2021/12/26 07:48:37;;;;;;;15.30;5.67;;;;;;;;;;4886439;29;20036;-80
2021/12/26 07:51:04;;;;;;;19.77;6.00;;;;;;;;;;4890897;29;20021;-79
2021/12/26 07:53:30;;;;;;;15.07;5.37;;;;;;;;;;4889934;29;20025;-79
2021/12/26 07:55:55;;;;;;;18.10;5.63;;;;;;;;;;4883670;29;20469;-79
2021/12/26 07:58:20;;;;;;;13.07;6.07;;;;;;;;;;4883316;29;20513;-79
2021/12/26 08:00:45;;;;;;;13.37;5.63;;;;;;;;;;4881332;29;20032;-79
2021/12/26 08:03:11;;;;;;;19.87;7.50;;;;;;;;;;4881743;29;20025;-79
2021/12/26 08:05:36;;;;;;;13.53;6.10;;;;;;;;;;4883832;29;20032;-80
2021/12/26 08:08:02;;;;;;;12.53;6.57;;;;;;;;;;4882553;29;20501;-79
2021/12/26 08:10:27;;;;;;;14.73;6.10;;;;;;;;;;4890568;29;20084;-78
2021/12/26 08:12:52;;;;;;;19.03;6.13;;;;;;;;;;4891911;29;20021;-78
2021/12/26 08:15:18;;;;;;;15.70;5.93;;;;;;;;;;4892126;29;20021;-79
2021/12/26 08:17:43;;;;;;;13.53;5.77;;;;;;;;;;4890050;29;20021;-79
2021/12/26 08:20:09;;;;;;;17.77;5.53;;;;;;;;;;4883845;29;20021;-79
2021/12/26 08:22:34;;;;;;;11.43;5.53;;;;;;;;;;4881386;29;20033;-80
2021/12/26 08:24:59;;;;;;;12.13;5.33;;;;;;;;;;4881082;29;20021;-80
2021/12/26 08:27:25;;;;;;;15.43;5.53;;;;;;;;;;4880403;29;20033;-79
2021/12/26 08:29:50;;;;;;;13.23;5.57;;;;;;;;;;4879355;29;20025;-79
2021/12/26 08:32:17;;;;;;;16.20;6.43;;;;;;;;;;4880245;29;20044;-79
2021/12/26 08:34:43;;;;;;;10.37;5.07;;;;;;;;;;4881044;29;20029;-79
2021/12/26 08:37:09;;;;;;;16.43;6.20;;;;;;;;;;4881475;29;20039;-79
2021/12/26 08:39:36;;;;;;;22.50;6.00;;;;;;;;;;4882186;29;20473;-80
2021/12/26 08:42:01;;;;;;;15.07;6.40;;;;;;;;;;4883693;29;20032;-79
2021/12/26 08:44:26;;;;;;;14.83;5.97;;;;;;;;;;4884184;29;20374;-80
2021/12/26 08:46:52;;;;;;;14.60;6.23;;;;;;;;;;4884088;29;20025;-80
2021/12/26 08:49:18;;;;;;;15.10;5.70;;;;;;;;;;4883709;29;20029;-80
2021/12/26 08:51:44;;;;;;;15.43;5.70;;;;;;;;;;4886750;29;20029;-79
2021/12/26 08:54:10;;;;;;;15.70;6.50;;;;;;;;;;4890666;29;20433;-79
2021/12/26 08:56:35;;;;;;;13.37;5.63;;;;;;;;;;4882582;29;20025;-79
2021/12/26 08:59:00;;;;;;;12.87;5.70;;;;;;;;;;4881049;29;20031;-79
2021/12/26 09:01:25;;;;;;;10.80;5.47;;;;;;;;;;4879653;29;20044;-79
2021/12/26 09:03:51;;;;;;;16.03;6.10;;;;;;;;;;4881180;29;20021;-79
2021/12/26 09:06:16;;;;;;;15.60;6.23;;;;;;;;;;4879129;29;20021;-79
2021/12/26 09:08:41;;;;;;;14.70;6.30;;;;;;;;;;4879166;29;20051;-79
2021/12/26 09:11:06;;;;;;;21.03;11.13;;;;;;;;;;4879630;29;20446;-79
2021/12/26 09:13:33;;;;;;;16.90;6.87;;;;;;;;;;4879728;29;20021;-79
2021/12/26 09:15:58;;;;;;;16.70;6.20;;;;;;;;;;4880445;29;20496;-80
2021/12/26 09:18:23;;;;;;;14.00;6.30;;;;;;;;;;4879473;29;20025;-79
2021/12/26 09:20:48;;;;;;;15.80;6.60;;;;;;;;;;4879499;29;20017;-79
2021/12/26 09:23:14;;;;;;;15.30;6.50;;;;;;;;;;4879544;29;20033;-79
2021/12/26 09:25:39;;;;;;;15.37;7.00;;;;;;;;;;4879587;29;20029;-80
2021/12/26 09:28:04;;;;;;;15.23;6.70;;;;;;;;;;4879782;29;20044;-80
2021/12/26 09:30:30;;;;;;;15.67;6.73;;;;;;;;;;4879873;29;20116;-79
2021/12/26 09:32:55;;;;;;;12.33;5.93;;;;;;;;;;4879388;29;20116;-79
2021/12/26 09:35:20;;;;;;;13.20;6.23;;;;;;;;;;4879900;29;20488;-80
2021/12/26 09:37:45;;;;;;;15.13;6.60;;;;;;;;;;4879380;29;20078;-79
2021/12/26 09:40:12;;;;;;;17.77;6.73;;;;;;;;;;4879278;29;20057;-79
2021/12/26 09:42:37;;;;;;;12.60;5.93;;;;;;;;;;4879318;29;20036;-79
2021/12/26 09:45:04;;;;;;;15.83;6.47;;;;;;;;;;4879030;29;20021;-80
2021/12/26 09:47:29;;;;;;;15.07;6.40;;;;;;;;;;4879337;29;20064;-79
2021/12/26 09:49:55;;;;;;;12.33;5.70;;;;;;;;;;4879349;29;20017;-80
2021/12/26 09:52:21;;;;;;;16.00;6.27;;;;;;;;;;4879382;29;20047;-80
2021/12/26 09:54:46;;;;;;;12.63;6.17;;;;;;;;;;4877681;29;20021;-79
2021/12/26 09:57:12;;;;;;;16.60;6.00;;;;;;;;;;4878358;29;20032;-79
2021/12/26 09:59:37;;;;;;;15.23;7.50;;;;;;;;;;4878741;29;20032;-79
2021/12/26 10:02:10;;;;;;;15.63;6.43;;;;;;;;;;4879105;29;20024;-79
2021/12/26 10:04:36;;;;;;;20.03;6.80;;;;;;;;;;4879555;29;20049;-79
2021/12/26 10:07:04;;;;;;;16.60;6.53;;;;;;;;;;4879051;29;20017;-79
2021/12/26 10:09:30;;;;;;;15.68;6.03;;;;;;;;;;4878843;29;20017;-80
2021/12/26 10:11:57;;;;;;;16.80;6.70;;;;;;;;;;4878151;29;20036;-79
2021/12/26 10:14:23;;;;;;;14.33;6.30;;;;;;;;;;4879112;29;20029;-79
2021/12/26 10:17:04;;;;;;;17.77;7.40;;;;;;;;;;4879280;29;20029;-79
2021/12/26 10:19:33;;;;;;;15.83;7.57;;;;;;;;;;4879061;29;20029;-79
2021/12/26 10:22:04;;;;;;;22.07;6.80;;;;;;;;;;4879023;29;20108;-80
2021/12/26 10:24:31;;;;;;;19.93;6.23;;;;;;;;;;4879187;29;20024;-80
2021/12/26 10:26:57;;;;;;;14.40;6.23;;;;;;;;;;4879721;29;20481;-79
2021/12/26 10:29:22;;;;;;;12.47;6.40;;;;;;;;;;4879667;29;20025;-80
2021/12/26 10:31:49;;;;;;;15.77;6.30;;;;;;;;;;4879235;29;20049;-81
2021/12/26 10:34:16;;;;;;;14.97;6.30;;;;;;;;;;4879538;29;20469;-79
2021/12/26 10:36:46;;;;;;;13.13;5.60;;;;;;;;;;4878397;29;20369;-79
2021/12/26 10:39:12;;;;;;;19.60;6.87;;;;;;;;;;4879624;29;20036;-80
2021/12/26 10:41:56;;;;;;;14.47;6.50;;;;;;;;;;4878251;29;20029;-79
2021/12/26 10:44:21;;;;;;;15.50;6.67;;;;;;;;;;4879421;29;20017;-79
2021/12/26 10:46:48;;;;;;;16.75;5.88;;;;;;;;;;4880102;29;20048;-80
2021/12/26 10:49:28;;;;;;;17.83;6.33;;;;;;;;;;4879436;29;20097;-79
2021/12/26 10:51:53;;;;;;;14.90;6.50;;;;;;;;;;4881030;29;20573;-80
2021/12/26 10:54:20;;;;;;;18.43;7.00;;;;;;;;;;4880116;29;20025;-79
2021/12/26 10:57:02;;;;;;;14.87;6.77;;;;;;;;;;4886145;29;20025;-80
2021/12/26 10:59:28;;;;;;;15.17;6.23;;;;;;;;;;4884447;29;20569;-80
2021/12/26 11:01:56;;;;;;;18.73;6.83;;;;;;;;;;4878872;29;20048;-79
2021/12/26 11:04:21;;;;;;;16.45;6.10;;;;;;;;;;4878310;29;20022;-79
2021/12/26 11:06:57;;;;;;;16.00;6.30;;;;;;;;;;4878550;29;20044;-79
2021/12/26 11:09:23;;;;;;;12.93;5.80;;;;;;;;;;4880355;29;20024;-79
2021/12/26 11:11:59;;;;;;;17.03;6.43;;;;;;;;;;4881511;29;20017;-79
2021/12/26 11:14:24;;;;;;;16.10;7.40;;;;;;;;;;4881939;29;20100;-79
2021/12/26 11:16:49;;;;;;;16.97;6.53;;;;;;;;;;4881510;29;20104;-80
2021/12/26 11:19:15;;;;;;;16.57;6.67;;;;;;;;;;4881596;29;20025;-79
2021/12/26 11:21:41;;;;;;;16.83;7.03;;;;;;;;;;4881720;29;20021;-78
2021/12/26 11:24:07;;;;;;;14.87;6.07;;;;;;;;;;4881870;29;20032;-79
2021/12/26 11:26:32;;;;;;;15.60;7.13;;;;;;;;;;4881671;29;20044;-79
2021/12/26 11:28:57;;;;;;;13.87;6.07;;;;;;;;;;4881575;29;20055;-80
2021/12/26 11:31:24;;;;;;;14.67;6.20;;;;;;;;;;4881305;29;20033;-79
2021/12/26 11:33:54;;;;;;;14.63;5.67;;;;;;;;;;4881441;29;20021;-79
2021/12/26 11:36:19;;;;;;;14.40;5.83;;;;;;;;;;4881627;29;20029;-79
2021/12/26 11:38:47;;;;;;;12.97;5.63;;;;;;;;;;4880115;29;20024;-79
2021/12/26 11:41:38;;;;;;;16.07;6.97;;;;;;;;;;4881764;29;20021;-78
2021/12/26 11:44:19;;;;;;;15.03;6.37;;;;;;;;;;4866075;29;20033;-79
2021/12/26 11:47:03;;;;;;;13.93;5.67;;;;;;;;;;4882197;29;20017;-78
2021/12/26 11:49:35;;;;;;;15.07;6.80;;;;;;;;;;4881622;29;20024;-78
2021/12/26 11:52:00;;;;;;;17.27;6.63;;;;;;;;;;4882268;29;20505;-78
2021/12/26 11:54:54;;;;;;;21.00;6.77;;;;;;;;;;4883176;29;20025;-78
2021/12/26 11:57:34;;;;;;;14.57;6.40;;;;;;;;;;4874922;29;20516;-79
2021/12/26 12:00:09;;;;;;;12.47;6.00;;;;;;;;;;4888328;29;20029;-80
2021/12/26 12:02:39;;;;;;;14.27;6.03;;;;;;;;;;4888762;29;20021;-78
2021/12/26 12:05:08;;;;;;;16.03;6.60;;;;;;;;;;4881443;29;20052;-78
2021/12/26 12:07:47;;;;;;;11.67;6.33;;;;;;;;;;4881942;29;20503;-78
2021/12/26 12:10:31;;;;;;;11.77;5.85;;;;;;;;;;4883590;29;20017;-80
2021/12/26 12:12:56;;;;;;;17.20;6.63;;;;;;;;;;4882248;29;20480;-80
2021/12/26 12:15:41;;;;;;;12.30;5.80;;;;;;;;;;4882584;29;20025;-78
2021/12/26 12:18:08;;;;;;;15.27;6.53;;;;;;;;;;4881709;29;20036;-78
2021/12/26 12:20:34;;;;;;;10.13;5.17;;;;;;;;;;4882056;29;20025;-79
2021/12/26 12:23:08;;;;;;;17.03;6.40;;;;;;;;;;4883130;29;20036;-79
2021/12/26 12:25:33;;;;;;;12.87;5.87;;;;;;;;;;4880426;29;20112;-80
2021/12/26 12:28:06;;;;;;;18.73;6.57;;;;;;;;;;4880808;29;20112;-79
2021/12/26 12:30:31;;;;;;;11.50;5.33;;;;;;;;;;4881558;29;20045;-79
2021/12/26 12:33:15;;;;;;;12.07;5.50;;;;;;;;;;4881189;29;20028;-78
2021/12/26 12:35:59;;;;;;;12.23;5.30;;;;;;;;;;4881721;29;20057;-78
2021/12/26 12:38:34;;;;;;;15.13;6.25;;;;;;;;;;4881645;29;20040;-79
2021/12/26 12:41:00;;;;;;;15.45;6.40;;;;;;;;;;4881927;29;20154;-78
2021/12/26 12:43:27;;;;;;;11.00;5.07;;;;;;;;;;4881936;29;20051;-79
2021/12/26 12:45:57;;;;;;;11.45;5.18;;;;;;;;;;4880701;29;20025;-79
2021/12/26 12:48:22;;;;;;;10.52;5.50;;;;;;;;;;4881704;29;20477;-78
2021/12/26 12:50:47;;;;;;;17.13;6.18;;;;;;;;;;4881232;29;20029;-78
2021/12/26 12:53:31;;;;;;;18.40;6.90;;;;;;;;;;4881575;29;20036;-79
2021/12/26 12:55:56;;;;;;;16.02;6.25;;;;;;;;;;4882004;29;20017;-78
2021/12/26 12:58:23;;;;;;;13.60;5.78;;;;;;;;;;4882264;29;20099;-79
2021/12/26 13:00:48;;;;;;;11.65;5.50;;;;;;;;;;4883068;29;20065;-79
2021/12/26 13:03:15;;;;;;;11.77;5.50;;;;;;;;;;4890287;29;20053;-79
2021/12/26 13:05:41;;;;;;;15.43;5.70;;;;;;;;;;4886438;29;20037;-79
2021/12/26 13:08:07;;;;;;;14.10;6.13;;;;;;;;;;4881199;29;20036;-79
2021/12/26 13:10:33;;;;;;;15.93;5.15;;;;;;;;;;4880136;29;20025;-78
2021/12/26 13:13:11;;;;;;;20.67;7.07;;;;;;;;;;4879500;29;20025;-78
2021/12/26 13:15:48;;;;;;;13.25;5.70;;;;;;;;;;4880870;29;20057;-79
2021/12/26 13:18:13;;;;;;;13.30;5.55;;;;;;;;;;4880847;29;20021;-79
2021/12/26 13:20:38;;;;;;;23.65;6.45;;;;;;;;;;4881587;29;20469;-78
2021/12/26 13:23:07;;;;;;;12.52;5.82;;;;;;;;;;4879244;29;20029;-78
2021/12/26 13:25:39;;;;;;;12.80;5.03;;;;;;;;;;4880335;29;20098;-78
2021/12/26 13:28:10;;;;;;;14.63;5.00;;;;;;;;;;4880180;29;20029;-78
2021/12/26 13:30:39;;;;;;;12.60;5.50;;;;;;;;;;4880186;29;20045;-79
2021/12/26 13:33:04;;;;;;;;;;;;;;;;;;4880264;29;20021;-79
2021/12/26 13:35:34;;;;;;;15.55;5.30;;;;;;;;;;4879844;29;19915;-78
2021/12/26 13:37:59;;;;;;;9.15;4.55;;;;;;;;;;4879160;29;20256;-78
2021/12/26 13:40:25;;;;;;;8.95;4.72;;;;;;;;;;4878670;29;20172;-78
2021/12/26 13:42:51;;;;;;;22.42;4.97;;;;;;;;;;4879933;29;20112;-79
2021/12/26 13:45:26;;;;;;;11.27;5.40;;;;;;;;;;4878243;29;20021;-77
2021/12/26 13:47:52;;;;;;;16.58;5.32;;;;;;;;;;4879242;29;20032;-79
2021/12/26 13:50:17;;;;;;;19.67;5.35;;;;;;;;;;4879157;29;20020;-79
2021/12/26 13:52:42;;;;;;;17.10;5.47;;;;;;;;;;4879150;29;20028;-79
2021/12/26 13:55:08;;;;;;;13.10;5.72;;;;;;;;;;4878240;29;20119;-77
2021/12/26 13:57:33;;;;;;;14.25;5.88;;;;;;;;;;4877966;29;20073;-77
2021/12/26 14:00:02;;;;;;;15.07;4.85;;;;;;;;;;4879084;29;20459;-77
2021/12/26 14:02:28;;;;;;;14.88;5.85;;;;;;;;;;4878981;29;20025;-79
2021/12/26 14:04:54;;;;;;;17.13;5.53;;;;;;;;;;4878724;29;20021;-79
2021/12/26 14:07:26;;;;;;;15.00;5.90;;;;;;;;;;4877335;29;20438;-79
2021/12/26 14:09:53;;;;;;;24.10;7.72;;;;;;;;;;4879236;29;20052;-79
2021/12/26 14:12:42;;;;;;;15.43;5.88;;;;;;;;;;4879548;29;20056;-78
2021/12/26 14:15:28;;;;;;;17.30;6.72;;;;;;;;;;4878804;29;20080;-78
2021/12/26 14:17:55;;;;;;;14.50;5.75;;;;;;;;;;4878825;29;20029;-79
2021/12/26 14:20:20;;;;;;;12.18;5.35;;;;;;;;;;4878976;29;20053;-78
2021/12/26 14:22:45;;;;;;;20.30;5.17;;;;;;;;;;4877918;29;20063;-79
2021/12/26 14:25:11;;;;;;;19.20;5.87;;;;;;;;;;4878708;29;20013;-79
2021/12/26 14:27:36;;;;;;;11.83;5.20;;;;;;;;;;4877960;29;20548;-79
2021/12/26 14:30:03;;;;;;;15.03;5.83;;;;;;;;;;4877836;29;20433;-79